Insula Oya 2 — FUKI — position and weather

sailwx.info

Track history (hours):
 
Tides and Currents Weather Stations Pressure Air Temp Water Temp Dewpoint Dewpoint Depression Visibility Wind Speed Wind Dir Waves Ship Positions

Insula Oya 2

Last reported at 2017-Mar-28 05:09 UTC. Time now 2017-Mar-28 10:07 UTC.
Position N 46°49' W 002°16'.

Length 50 m; draft 2.4 m.

Type: Passenger vessel. MMSI: 227004900.

Date/timePositionNaut miles runAvg speedWind from/ knotsBaromVisibWave heightAir tempDewpointWater temp
2017-Mar-28 05:09N 46°49' W 002°16'712.2
2017-Mar-28 04:33N 46°54' W 002°08'0 0.1
2017-Mar-28 03:33N 46°54' W 002°08'0 0.0
2017-Mar-28 02:22N 46°54' W 002°08'0 0.0
2017-Mar-28 01:31N 46°54' W 002°08'0 0.0
2017-Mar-28 00:22N 46°54' W 002°08'0 0.0
2017-Mar-27 23:28N 46°54' W 002°08'0 0.0
2017-Mar-27 22:28N 46°54' W 002°08'0 0.0
2017-Mar-27 21:31N 46°54' W 002°08'0 0.0
2017-Mar-27 20:28N 46°54' W 002°08'0 0.0
2017-Mar-27 19:31N 46°54' W 002°08'0 0.0
2017-Mar-27 17:22N 46°54' W 002°08'  
2017-Mar-25 12:18N 46°54' W 002°11'2 2.2
2017-Mar-25 11:33N 46°54' W 002°08'0 0.0
2017-Mar-25 10:33N 46°54' W 002°08'0 0.0
2017-Mar-25 09:33N 46°54' W 002°08'0 0.0
2017-Mar-25 08:33N 46°54' W 002°08'0 0.0
2017-Mar-25 07:33N 46°54' W 002°08'0 0.0
2017-Mar-25 06:33N 46°54' W 002°08'0 0.0
2017-Mar-25 05:33N 46°54' W 002°08'0 0.0
2017-Mar-25 04:33N 46°54' W 002°08'0 0.0
2017-Mar-25 03:29N 46°54' W 002°08'0 0.0
2017-Mar-25 02:29N 46°54' W 002°08'0 0.0
2017-Mar-25 01:33N 46°54' W 002°08'0 0.0
2017-Mar-25 00:33N 46°54' W 002°08'0 0.0
2017-Mar-24 23:33N 46°54' W 002°08'0 0.0
2017-Mar-24 22:33N 46°54' W 002°08'0 0.0
2017-Mar-24 21:33N 46°54' W 002°08'0 0.0
2017-Mar-24 20:33N 46°54' W 002°08'0 0.0
2017-Mar-24 19:33N 46°54' W 002°08'0 0.0
2017-Mar-24 18:33N 46°54' W 002°08'0 0.0
2017-Mar-24 17:33N 46°54' W 002°08'0 0.0
2017-Mar-24 16:33N 46°54' W 002°08'0 0.1
2017-Mar-24 11:30N 46°54' W 002°09'0 0.3
2017-Mar-24 10:27N 46°54' W 002°08'0 0.0
2017-Mar-24 09:33N 46°54' W 002°08'0 0.0
2017-Mar-24 08:33N 46°54' W 002°08'0 0.0
2017-Mar-24 07:33N 46°54' W 002°08'0 0.0
2017-Mar-24 06:33N 46°54' W 002°08'0 0.0
2017-Mar-24 05:33N 46°54' W 002°08'0 0.0
2017-Mar-24 04:33N 46°54' W 002°08'0 0.0
2017-Mar-24 03:33N 46°54' W 002°08'0 0.0
2017-Mar-24 02:33N 46°54' W 002°08'0 0.0
2017-Mar-24 01:33N 46°54' W 002°08'0 0.0
2017-Mar-24 00:33N 46°54' W 002°08'0 0.0
2017-Mar-23 23:33N 46°54' W 002°08'0 0.0
2017-Mar-23 22:33N 46°54' W 002°08'0 0.0
2017-Mar-23 21:33N 46°54' W 002°08'0 0.0
2017-Mar-23 20:33N 46°54' W 002°08'0 0.0
2017-Mar-23 19:33N 46°54' W 002°08'0 0.0
2017-Mar-23 18:33N 46°54' W 002°08'0 0.0
2017-Mar-23 17:33N 46°54' W 002°08'0 0.0
2017-Mar-23 16:33N 46°54' W 002°08'0 0.0
2017-Mar-23 15:33N 46°54' W 002°08'4 4.0
2017-Mar-23 14:32N 46°51' W 002°13'4 1.0
2017-Mar-23 10:33N 46°54' W 002°08'0 0.0
2017-Mar-23 09:33N 46°54' W 002°08'0 0.0
2017-Mar-23 08:33N 46°54' W 002°08'0 0.0
2017-Mar-23 07:33N 46°54' W 002°08'0 0.0
2017-Mar-23 06:34N 46°54' W 002°08'0 0.0
2017-Mar-23 05:33N 46°54' W 002°08'0 0.0
2017-Mar-23 04:33N 46°54' W 002°08'0 0.0
2017-Mar-23 03:33N 46°54' W 002°08'0 0.0
2017-Mar-23 02:34N 46°54' W 002°08'0 0.0
2017-Mar-23 01:34N 46°54' W 002°08'0 0.0
2017-Mar-23 00:33N 46°54' W 002°08'0 0.0
2017-Mar-22 23:33N 46°54' W 002°08'0 0.0
2017-Mar-22 22:34N 46°54' W 002°08'0 0.0
2017-Mar-22 21:33N 46°54' W 002°08'0 0.0
2017-Mar-22 20:33N 46°54' W 002°08'0 0.0
2017-Mar-22 19:33N 46°54' W 002°08'0 0.0
2017-Mar-22 18:33N 46°54' W 002°08'0 0.0
2017-Mar-22 17:33N 46°54' W 002°08'0 0.0
2017-Mar-22 16:34N 46°54' W 002°08'0 0.0
2017-Mar-22 15:34N 46°54' W 002°08'0 0.0
2017-Mar-22 14:33N 46°54' W 002°08'4 3.6
2017-Mar-22 13:33N 46°52' W 002°13'4 0.9
2017-Mar-22 09:34N 46°54' W 002°08'0 0.0
2017-Mar-22 08:34N 46°54' W 002°08'0 0.0
2017-Mar-22 07:34N 46°54' W 002°08'0 0.0
2017-Mar-22 06:33N 46°54' W 002°08'0 0.0
2017-Mar-22 05:33N 46°54' W 002°08'0 0.0
2017-Mar-22 04:33N 46°54' W 002°08'0 0.0
2017-Mar-22 03:33N 46°54' W 002°08'0 0.0
2017-Mar-22 02:33N 46°54' W 002°08'0 0.0
2017-Mar-22 01:33N 46°54' W 002°08'0 0.0
2017-Mar-22 00:34N 46°54' W 002°08'0 0.0
2017-Mar-21 23:34N 46°54' W 002°08'0 0.0
2017-Mar-21 22:33N 46°54' W 002°08'0 0.0
2017-Mar-21 21:34N 46°54' W 002°08'0 0.0
2017-Mar-21 20:33N 46°54' W 002°08'0 0.0
2017-Mar-21 19:34N 46°54' W 002°08'0 0.0
2017-Mar-21 18:34N 46°54' W 002°08'0 0.0
2017-Mar-21 17:33N 46°54' W 002°08'0 0.0
2017-Mar-21 16:33N 46°54' W 002°08'0 0.0
2017-Mar-21 15:33N 46°54' W 002°08'0 0.0
2017-Mar-21 14:33N 46°54' W 002°08'0 0.0
2017-Mar-21 13:24N 46°54' W 002°08'0 0.0
2017-Mar-21 12:33N 46°54' W 002°08'0 0.0
2017-Mar-21 07:33N 46°54' W 002°08'0 0.0
2017-Mar-21 06:33N 46°54' W 002°08'0 0.0
2017-Mar-21 05:33N 46°54' W 002°08'0 0.0
2017-Mar-21 04:33N 46°54' W 002°08'0 0.0
2017-Mar-21 03:33N 46°54' W 002°08'0 0.0
2017-Mar-21 02:33N 46°54' W 002°08'0 0.0
2017-Mar-21 01:33N 46°54' W 002°08'0 0.0
2017-Mar-21 00:33N 46°54' W 002°08'0 0.0
2017-Mar-20 23:33N 46°54' W 002°08'0 0.0
2017-Mar-20 22:33N 46°54' W 002°08'0 0.0
2017-Mar-20 21:33N 46°54' W 002°08'0 0.0
2017-Mar-20 20:33N 46°54' W 002°08'0 0.0
2017-Mar-20 19:33N 46°54' W 002°08'0 0.0
2017-Mar-20 18:33N 46°54' W 002°08'0 0.0
2017-Mar-20 17:33N 46°54' W 002°08'0 0.0
2017-Mar-20 16:33N 46°54' W 002°08'0 0.0
2017-Mar-20 15:33N 46°54' W 002°08'0 0.0
2017-Mar-20 14:33N 46°54' W 002°08'0 0.0
2017-Mar-20 13:33N 46°54' W 002°08'0 0.0
2017-Mar-20 12:33N 46°54' W 002°08'0 0.0
2017-Mar-20 11:33N 46°54' W 002°08'0 0.0
2017-Mar-20 10:33N 46°54' W 002°08'10 8.0
2017-Mar-20 09:18N 46°46' W 002°18'3 0.7
2017-Mar-20 04:25N 46°44' W 002°21'0 0.0
2017-Mar-19 01:25N 46°44' W 002°21'0 0.0
2017-Mar-19 00:18N 46°44' W 002°21'0 0.0
2017-Mar-18 15:17N 46°44' W 002°21'0 0.0
2017-Mar-18 14:33N 46°44' W 002°21'0 0.0
2017-Mar-18 13:32N 46°44' W 002°21'11 1.6
2017-Mar-18 06:32N 46°53' W 002°12'3 2.8
2017-Mar-18 05:33N 46°54' W 002°08'  
Track history (hours):
 
Tides and Currents Weather Stations Pressure Air Temp Water Temp Dewpoint Dewpoint Depression Visibility Wind Speed Wind Dir Waves Ship Positions

Insula Oya 2

Last reported at 2017-Mar-28 05:09 UTC. Time now 2017-Mar-28 10:07 UTC.
Position N 46°49' W 002°16'.

Length 50 m; draft 2.4 m.

Type: Passenger vessel. MMSI: 227004900.

Date/timePositionNaut miles runAvg speedWind from/ knotsBaromVisibWave heightAir tempDewpointWater temp
2017-Mar-28 05:09N 46°49' W 002°16'712.2
2017-Mar-28 04:33N 46°54' W 002°08'0 0.1
2017-Mar-28 03:33N 46°54' W 002°08'0 0.0
2017-Mar-28 02:22N 46°54' W 002°08'0 0.0
2017-Mar-28 01:31N 46°54' W 002°08'0 0.0
2017-Mar-28 00:22N 46°54' W 002°08'0 0.0
2017-Mar-27 23:28N 46°54' W 002°08'0 0.0
2017-Mar-27 22:28N 46°54' W 002°08'0 0.0
2017-Mar-27 21:31N 46°54' W 002°08'0 0.0
2017-Mar-27 20:28N 46°54' W 002°08'0 0.0
2017-Mar-27 19:31N 46°54' W 002°08'0 0.0
2017-Mar-27 17:22N 46°54' W 002°08'  
2017-Mar-25 12:18N 46°54' W 002°11'2 2.2
2017-Mar-25 11:33N 46°54' W 002°08'0 0.0
2017-Mar-25 10:33N 46°54' W 002°08'0 0.0
2017-Mar-25 09:33N 46°54' W 002°08'0 0.0
2017-Mar-25 08:33N 46°54' W 002°08'0 0.0
2017-Mar-25 07:33N 46°54' W 002°08'0 0.0
2017-Mar-25 06:33N 46°54' W 002°08'0 0.0
2017-Mar-25 05:33N 46°54' W 002°08'0 0.0
2017-Mar-25 04:33N 46°54' W 002°08'0 0.0
2017-Mar-25 03:29N 46°54' W 002°08'0 0.0
2017-Mar-25 02:29N 46°54' W 002°08'0 0.0
2017-Mar-25 01:33N 46°54' W 002°08'0 0.0
2017-Mar-25 00:33N 46°54' W 002°08'0 0.0
2017-Mar-24 23:33N 46°54' W 002°08'0 0.0
2017-Mar-24 22:33N 46°54' W 002°08'0 0.0
2017-Mar-24 21:33N 46°54' W 002°08'0 0.0
2017-Mar-24 20:33N 46°54' W 002°08'0 0.0
2017-Mar-24 19:33N 46°54' W 002°08'0 0.0
2017-Mar-24 18:33N 46°54' W 002°08'0 0.0
2017-Mar-24 17:33N 46°54' W 002°08'0 0.0
2017-Mar-24 16:33N 46°54' W 002°08'0 0.1
2017-Mar-24 11:30N 46°54' W 002°09'0 0.3
2017-Mar-24 10:27N 46°54' W 002°08'0 0.0
2017-Mar-24 09:33N 46°54' W 002°08'0 0.0
2017-Mar-24 08:33N 46°54' W 002°08'0 0.0
2017-Mar-24 07:33N 46°54' W 002°08'0 0.0
2017-Mar-24 06:33N 46°54' W 002°08'0 0.0
2017-Mar-24 05:33N 46°54' W 002°08'0 0.0
2017-Mar-24 04:33N 46°54' W 002°08'0 0.0
2017-Mar-24 03:33N 46°54' W 002°08'0 0.0
2017-Mar-24 02:33N 46°54' W 002°08'0 0.0
2017-Mar-24 01:33N 46°54' W 002°08'0 0.0
2017-Mar-24 00:33N 46°54' W 002°08'0 0.0
2017-Mar-23 23:33N 46°54' W 002°08'0 0.0
2017-Mar-23 22:33N 46°54' W 002°08'0 0.0
2017-Mar-23 21:33N 46°54' W 002°08'0 0.0
2017-Mar-23 20:33N 46°54' W 002°08'0 0.0
2017-Mar-23 19:33N 46°54' W 002°08'0 0.0
2017-Mar-23 18:33N 46°54' W 002°08'0 0.0
2017-Mar-23 17:33N 46°54' W 002°08'0 0.0
2017-Mar-23 16:33N 46°54' W 002°08'0 0.0
2017-Mar-23 15:33N 46°54' W 002°08'4 4.0
2017-Mar-23 14:32N 46°51' W 002°13'4 1.0
2017-Mar-23 10:33N 46°54' W 002°08'0 0.0
2017-Mar-23 09:33N 46°54' W 002°08'0 0.0
2017-Mar-23 08:33N 46°54' W 002°08'0 0.0
2017-Mar-23 07:33N 46°54' W 002°08'0 0.0
2017-Mar-23 06:34N 46°54' W 002°08'0 0.0
2017-Mar-23 05:33N 46°54' W 002°08'0 0.0
2017-Mar-23 04:33N 46°54' W 002°08'0 0.0
2017-Mar-23 03:33N 46°54' W 002°08'0 0.0
2017-Mar-23 02:34N 46°54' W 002°08'0 0.0
2017-Mar-23 01:34N 46°54' W 002°08'0 0.0
2017-Mar-23 00:33N 46°54' W 002°08'0 0.0
2017-Mar-22 23:33N 46°54' W 002°08'0 0.0
2017-Mar-22 22:34N 46°54' W 002°08'0 0.0
2017-Mar-22 21:33N 46°54' W 002°08'0 0.0
2017-Mar-22 20:33N 46°54' W 002°08'0 0.0
2017-Mar-22 19:33N 46°54' W 002°08'0 0.0
2017-Mar-22 18:33N 46°54' W 002°08'0 0.0
2017-Mar-22 17:33N 46°54' W 002°08'0 0.0
2017-Mar-22 16:34N 46°54' W 002°08'0 0.0
2017-Mar-22 15:34N 46°54' W 002°08'0 0.0
2017-Mar-22 14:33N 46°54' W 002°08'4 3.6
2017-Mar-22 13:33N 46°52' W 002°13'4 0.9
2017-Mar-22 09:34N 46°54' W 002°08'0 0.0
2017-Mar-22 08:34N 46°54' W 002°08'0 0.0
2017-Mar-22 07:34N 46°54' W 002°08'0 0.0
2017-Mar-22 06:33N 46°54' W 002°08'0 0.0
2017-Mar-22 05:33N 46°54' W 002°08'0 0.0
2017-Mar-22 04:33N 46°54' W 002°08'0 0.0
2017-Mar-22 03:33N 46°54' W 002°08'0 0.0
2017-Mar-22 02:33N 46°54' W 002°08'0 0.0
2017-Mar-22 01:33N 46°54' W 002°08'0 0.0
2017-Mar-22 00:34N 46°54' W 002°08'0 0.0
2017-Mar-21 23:34N 46°54' W 002°08'0 0.0
2017-Mar-21 22:33N 46°54' W 002°08'0 0.0
2017-Mar-21 21:34N 46°54' W 002°08'0 0.0
2017-Mar-21 20:33N 46°54' W 002°08'0 0.0
2017-Mar-21 19:34N 46°54' W 002°08'0 0.0
2017-Mar-21 18:34N 46°54' W 002°08'0 0.0
2017-Mar-21 17:33N 46°54' W 002°08'0 0.0
2017-Mar-21 16:33N 46°54' W 002°08'0 0.0
2017-Mar-21 15:33N 46°54' W 002°08'0 0.0
2017-Mar-21 14:33N 46°54' W 002°08'0 0.0
2017-Mar-21 13:24N 46°54' W 002°08'0 0.0
2017-Mar-21 12:33N 46°54' W 002°08'0 0.0
2017-Mar-21 07:33N 46°54' W 002°08'0 0.0
2017-Mar-21 06:33N 46°54' W 002°08'0 0.0
2017-Mar-21 05:33N 46°54' W 002°08'0 0.0
2017-Mar-21 04:33N 46°54' W 002°08'0 0.0
2017-Mar-21 03:33N 46°54' W 002°08'0 0.0
2017-Mar-21 02:33N 46°54' W 002°08'0 0.0
2017-Mar-21 01:33N 46°54' W 002°08'0 0.0
2017-Mar-21 00:33N 46°54' W 002°08'0 0.0
2017-Mar-20 23:33N 46°54' W 002°08'0 0.0
2017-Mar-20 22:33N 46°54' W 002°08'0 0.0
2017-Mar-20 21:33N 46°54' W 002°08'0 0.0
2017-Mar-20 20:33N 46°54' W 002°08'0 0.0
2017-Mar-20 19:33N 46°54' W 002°08'0 0.0
2017-Mar-20 18:33N 46°54' W 002°08'0 0.0
2017-Mar-20 17:33N 46°54' W 002°08'0 0.0
2017-Mar-20 16:33N 46°54' W 002°08'0 0.0
2017-Mar-20 15:33N 46°54' W 002°08'0 0.0
2017-Mar-20 14:33N 46°54' W 002°08'0 0.0
2017-Mar-20 13:33N 46°54' W 002°08'0 0.0
2017-Mar-20 12:33N 46°54' W 002°08'0 0.0
2017-Mar-20 11:33N 46°54' W 002°08'0 0.0
2017-Mar-20 10:33N 46°54' W 002°08'10 8.0
2017-Mar-20 09:18N 46°46' W 002°18'3 0.7
2017-Mar-20 04:25N 46°44' W 002°21'0 0.0
2017-Mar-19 01:25N 46°44' W 002°21'0 0.0
2017-Mar-19 00:18N 46°44' W 002°21'0 0.0
2017-Mar-18 15:17N 46°44' W 002°21'0 0.0
2017-Mar-18 14:33N 46°44' W 002°21'0 0.0
2017-Mar-18 13:32N 46°44' W 002°21'11 1.6
2017-Mar-18 06:32N 46°53' W 002°12'3 2.8
2017-Mar-18 05:33N 46°54' W 002°08'  

Dump ship's entire track history